createdAt,value
2019-03-04T00:01:50.999Z,95729.70
2019-03-04T00:04:21.500Z,95730.32
2019-03-04T00:06:51.955Z,95720.14
2019-03-04T00:09:22.352Z,95719.91
2019-03-04T00:11:52.757Z,95716.48
2019-03-04T00:14:23.262Z,95717.41
2019-03-04T00:16:53.700Z,95696.03
2019-03-04T00:19:24.162Z,95697.03
2019-03-04T00:21:54.551Z,95694.60
2019-03-04T00:24:24.997Z,95689.98
2019-03-04T00:26:55.408Z,95693.71
2019-03-04T00:29:25.673Z,95694.41
2019-03-04T00:31:56.101Z,95692.91
2019-03-04T00:34:26.574Z,95690.17
2019-03-04T00:36:57.053Z,95688.58
2019-03-04T00:39:27.498Z,95686.77
2019-03-04T00:41:58.029Z,95681.11
2019-03-04T00:44:28.504Z,95675.25
2019-03-04T00:46:58.801Z,95673.90
2019-03-04T00:49:29.160Z,95667.62
2019-03-04T00:51:59.710Z,95669.63
2019-03-04T00:54:30.029Z,95662.58
2019-03-04T00:57:00.490Z,95659.14
2019-03-04T00:59:31.468Z,95665.22
2019-03-04T01:02:02.030Z,95660.38
2019-03-04T01:04:32.490Z,95656.72
2019-03-04T01:07:02.875Z,95649.87
2019-03-04T01:09:33.279Z,95651.67
2019-03-04T01:12:03.669Z,95638.07
2019-03-04T01:14:34.108Z,95634.84
2019-03-04T01:17:04.534Z,95634.15
2019-03-04T01:19:34.952Z,95641.51
2019-03-04T01:22:05.262Z,95633.77
2019-03-04T01:24:35.706Z,95633.56
2019-03-04T01:27:06.107Z,95632.76
2019-03-04T01:29:36.460Z,95627.72
2019-03-04T01:32:06.789Z,95618.44
2019-03-04T01:34:37.140Z,95612.08
2019-03-04T01:37:07.513Z,95610.88
2019-03-04T01:39:38.062Z,95611.58
2019-03-04T01:42:08.537Z,95607.57
2019-03-04T01:44:38.859Z,95609.47
2019-03-04T01:47:09.259Z,95605.34
2019-03-04T01:49:39.625Z,95603.64
2019-03-04T01:52:10.045Z,95597.28
2019-03-04T01:54:40.503Z,95597.39
2019-03-04T01:57:10.910Z,95586.98
2019-03-04T01:59:41.252Z,95579.44
2019-03-04T02:02:11.669Z,95561.40
2019-03-04T02:04:42.020Z,95560.48
2019-03-04T02:07:12.408Z,95556.78
2019-03-04T02:09:42.886Z,95543.70
2019-03-04T02:12:13.317Z,95536.44
2019-03-04T02:14:43.818Z,95526.20
2019-03-04T02:17:14.148Z,95527.71
2019-03-04T02:19:44.575Z,95527.80
2019-03-04T02:22:14.943Z,95526.30
2019-03-04T02:24:45.359Z,95515.25
2019-03-04T02:27:15.857Z,95513.70
2019-03-04T02:29:46.265Z,95504.66
2019-03-04T02:32:16.711Z,95498.72
2019-03-04T02:34:47.004Z,95494.19
2019-03-04T02:37:17.368Z,95491.88
2019-03-04T02:39:47.758Z,95485.63
2019-03-04T02:42:18.212Z,95482.52
2019-03-04T02:44:48.664Z,95473.05
2019-03-04T02:47:19.117Z,95460.45
2019-03-04T02:49:49.620Z,95462.95
2019-03-04T02:52:20.082Z,95462.33
2019-03-04T02:54:50.513Z,95454.28
2019-03-04T02:57:20.882Z,95448.47
2019-03-04T02:59:51.260Z,95443.31
2019-03-04T03:02:21.612Z,95440.39
2019-03-04T03:04:51.936Z,95443.44
2019-03-04T03:07:22.665Z,95439.41
2019-03-04T03:09:53.083Z,95438.02
2019-03-04T03:12:23.539Z,95428.06
2019-03-04T03:14:53.919Z,95423.72
2019-03-04T03:17:24.383Z,95421.55
2019-03-04T03:19:54.781Z,95412.89
2019-03-04T03:22:25.305Z,95411.71
2019-03-04T03:24:55.739Z,95401.03
2019-03-04T03:27:26.249Z,95400.65
2019-03-04T03:29:56.582Z,95385.16
2019-03-04T03:32:27.042Z,95386.66
2019-03-04T03:34:57.508Z,95381.95
2019-03-04T03:37:28.005Z,95377.92
2019-03-04T03:39:58.433Z,95373.38
2019-03-04T03:42:28.931Z,95363.42
2019-03-04T03:44:59.370Z,95358.41
2019-03-04T03:47:29.890Z,95345.84
2019-03-04T03:50:00.407Z,95342.88
2019-03-04T03:52:30.910Z,95334.84
2019-03-04T03:55:01.354Z,95350.38
2019-03-04T03:57:31.791Z,95341.73
2019-03-04T04:00:02.150Z,95349.05
2019-03-04T04:02:32.442Z,95332.55
2019-03-04T04:05:02.930Z,95336.39
2019-03-04T04:07:33.338Z,95335.58
2019-03-04T04:10:03.925Z,95328.86
2019-03-04T04:12:34.431Z,95321.91
2019-03-04T04:15:05.760Z,95317.09
2019-03-04T04:17:36.212Z,95313.66
2019-03-04T04:20:07.095Z,95304.31
2019-03-04T04:22:37.541Z,95305.63
2019-03-04T04:25:08.377Z,95303.80
2019-03-04T04:27:38.749Z,95298.75
2019-03-04T04:30:09.894Z,95296.14
2019-03-04T04:32:40.349Z,95288.81
2019-03-04T04:35:12.458Z,95284.77
2019-03-04T04:37:42.947Z,95287.48
2019-03-04T04:40:13.468Z,95277.05
2019-03-04T04:42:43.996Z,95263.59
2019-03-04T04:45:14.765Z,95260.20
2019-03-04T04:47:45.525Z,95267.77
2019-03-04T04:50:16.271Z,95263.62
2019-03-04T04:52:46.674Z,95245.77
2019-03-04T04:55:17.129Z,95239.05
2019-03-04T04:57:47.494Z,95233.41
2019-03-04T05:00:18.601Z,95233.59
2019-03-04T05:02:49.049Z,95229.47
2019-03-04T05:05:19.557Z,95230.56
2019-03-04T05:07:50.024Z,95222.23
2019-03-04T05:10:20.451Z,95223.41
2019-03-04T05:12:50.862Z,95209.97
2019-03-04T05:15:21.480Z,95207.37
2019-03-04T05:17:51.999Z,95209.95
2019-03-04T05:20:23.167Z,95191.89
2019-03-04T05:22:53.667Z,95185.47
2019-03-04T05:25:24.058Z,95181.44
2019-03-04T05:27:54.430Z,95183.65
2019-03-04T05:30:24.871Z,95171.98
2019-03-04T05:32:55.389Z,95171.47
2019-03-04T05:35:25.683Z,95169.45
2019-03-04T05:37:56.090Z,95164.71
2019-03-04T05:40:26.560Z,95160.25
2019-03-04T05:42:57.011Z,95159.95
2019-03-04T05:45:27.539Z,95154.67
2019-03-04T05:47:57.977Z,95136.64
2019-03-04T05:50:28.475Z,95143.86
2019-03-04T05:53:00.067Z,95136.64
2019-03-04T05:55:30.490Z,95136.33
2019-03-04T05:58:00.998Z,95132.52
2019-03-04T06:00:38.105Z,95133.84
2019-03-04T06:03:09.374Z,95130.13
2019-03-04T06:05:39.672Z,95127.83
2019-03-04T06:08:10.462Z,95113.20
2019-03-04T06:10:40.818Z,95116.41
2019-03-04T06:13:11.233Z,95112.81
2019-03-04T06:15:41.710Z,95114.22
2019-03-04T06:18:12.082Z,95110.09
2019-03-04T06:20:42.523Z,95108.80
2019-03-04T06:23:13.013Z,95102.87
2019-03-04T06:25:43.487Z,95099.98
2019-03-04T06:28:13.813Z,95096.86
2019-03-04T06:30:44.249Z,95091.88
2019-03-04T06:33:14.598Z,95089.98
2019-03-04T06:35:45.018Z,95098.72
2019-03-04T06:38:15.483Z,95087.41
2019-03-04T06:40:46.107Z,95081.19
2019-03-04T06:43:16.536Z,95085.99
2019-03-04T06:45:46.878Z,95069.95
2019-03-04T06:48:17.356Z,95074.17
2019-03-04T06:50:55.703Z,95058.09
2019-03-04T06:53:35.679Z,95052.77
2019-03-04T06:56:40.674Z,95054.08
2019-03-04T06:59:48.835Z,95043.64
2019-03-04T07:02:19.748Z,95038.63
2019-03-04T07:05:47.884Z,95027.92
2019-03-04T07:09:16.468Z,95022.45
2019-03-04T07:11:54.339Z,95013.17
2019-03-04T07:14:24.727Z,95003.38
2019-03-04T07:16:55.352Z,94998.29
2019-03-04T07:19:31.331Z,95006.58
2019-03-04T07:22:01.777Z,95013.08
2019-03-04T07:24:32.214Z,95004.12
2019-03-04T07:27:02.642Z,94998.50
2019-03-04T07:29:32.992Z,94999.11
2019-03-04T07:32:03.425Z,94987.36
2019-03-04T07:34:34.127Z,94984.64
2019-03-04T07:37:04.688Z,94974.98
2019-03-04T07:39:35.158Z,94977.81
2019-03-04T07:42:05.584Z,94968.09
2019-03-04T07:44:36.088Z,94966.47
2019-03-04T07:47:06.720Z,94960.22
2019-03-04T07:49:37.190Z,94962.80
2019-03-04T07:52:07.578Z,94957.36
2019-03-04T07:54:38.075Z,94957.29
2019-03-04T07:57:08.506Z,94955.52
2019-03-04T07:59:39.279Z,94937.46
2019-03-04T08:02:09.652Z,94940.15
2019-03-04T08:04:40.090Z,94941.31
2019-03-04T08:07:46.137Z,94930.30
2019-03-04T08:11:14.104Z,94948.60
2019-03-04T08:13:54.096Z,94939.69
2019-03-04T08:16:24.488Z,94934.60
2019-03-04T08:18:54.863Z,94934.53
2019-03-04T08:21:25.185Z,94928.55
2019-03-04T08:23:55.605Z,94926.83
2019-03-04T08:26:26.131Z,94926.44
2019-03-04T08:28:58.663Z,94935.50
2019-03-04T08:31:28.800Z,94927.69
2019-03-04T08:33:59.219Z,94925.56
2019-03-04T08:36:29.719Z,94935.25
2019-03-04T08:39:00.120Z,94935.91
2019-03-04T08:41:30.588Z,94937.06
2019-03-04T08:44:00.882Z,94930.52
2019-03-04T08:46:31.284Z,94932.50
2019-03-04T08:49:01.774Z,94934.35
2019-03-04T08:51:32.192Z,94933.10
2019-03-04T08:54:02.586Z,94931.41
2019-03-04T08:56:33.005Z,94934.22
2019-03-04T08:59:03.481Z,94943.83
2019-03-04T09:01:34.006Z,94951.74
2019-03-04T09:04:04.442Z,94952.55
2019-03-04T09:06:34.901Z,94961.01
2019-03-04T09:09:07.789Z,94966.00
2019-03-04T09:11:38.240Z,94970.75
2019-03-04T09:14:08.652Z,95011.61
2019-03-04T09:16:39.096Z,95032.32
2019-03-04T09:19:09.506Z,95025.34
2019-03-04T09:21:39.812Z,95033.63
2019-03-04T09:24:10.276Z,95024.53
2019-03-04T09:26:40.611Z,95025.47
2019-03-04T09:29:11.036Z,95016.59
2019-03-04T09:31:41.503Z,95018.38
2019-03-04T09:34:11.823Z,95001.27
2019-03-04T09:36:42.309Z,94990.34
2019-03-04T09:39:17.118Z,94984.52
2019-03-04T09:41:47.958Z,94967.34
2019-03-04T09:44:18.482Z,94956.53
2019-03-04T09:46:48.858Z,94956.88
2019-03-04T09:49:19.209Z,94948.93
2019-03-04T09:51:49.633Z,94957.02
2019-03-04T09:54:19.921Z,94950.93
2019-03-04T09:56:50.325Z,94963.02
2019-03-04T09:59:20.728Z,94967.59
2019-03-04T10:02:00.839Z,94965.78
2019-03-04T10:05:03.642Z,94966.21
2019-03-04T10:08:32.959Z,94972.23
2019-03-04T10:12:00.264Z,94979.47
2019-03-04T10:15:28.808Z,94972.91
2019-03-04T10:18:58.226Z,94974.69
2019-03-04T10:21:57.770Z,94974.09
2019-03-04T10:25:28.761Z,94978.76
2019-03-04T10:29:05.558Z,94978.48
2019-03-04T10:32:08.653Z,94993.31
2019-03-04T10:35:36.754Z,94977.48
2019-03-04T10:38:50.307Z,94980.96
2019-03-04T10:42:14.798Z,94993.13
2019-03-04T10:45:41.819Z,95006.54
2019-03-04T10:48:12.200Z,95006.09
2019-03-04T10:50:42.668Z,95011.35
2019-03-04T10:53:13.111Z,95000.23
2019-03-04T10:55:43.594Z,95017.54
2019-03-04T10:58:13.994Z,95009.27
2019-03-04T11:00:44.467Z,95014.70
2019-03-04T11:03:14.942Z,95017.42
2019-03-04T11:05:45.662Z,95022.08
2019-03-04T11:08:16.205Z,95017.72
2019-03-04T11:10:46.651Z,95009.25
2019-03-04T11:13:17.007Z,95014.80
2019-03-04T11:15:47.480Z,95013.05
2019-03-04T11:18:17.886Z,95022.00
2019-03-04T11:20:48.359Z,95029.88
2019-03-04T11:23:18.767Z,95033.39
2019-03-04T11:25:49.166Z,95034.56
2019-03-04T11:28:19.647Z,95029.05
2019-03-04T11:30:50.054Z,95062.27
2019-03-04T11:33:20.474Z,95057.34
2019-03-04T11:35:50.780Z,95070.09
2019-03-04T11:38:53.117Z,95069.62
2019-03-04T11:41:24.264Z,95081.77
2019-03-04T11:43:54.625Z,95094.88
2019-03-04T11:46:25.327Z,95129.29
2019-03-04T11:48:55.787Z,95134.58
2019-03-04T11:51:26.205Z,95131.30
2019-03-04T11:53:56.660Z,95135.13
2019-03-04T11:56:27.121Z,95151.25
2019-03-04T11:58:57.534Z,95138.69
2019-03-04T12:01:41.582Z,95156.58
2019-03-04T12:04:12.036Z,95163.38
2019-03-04T12:06:43.227Z,95165.31
2019-03-04T12:09:16.128Z,95189.61
2019-03-04T12:11:46.612Z,95164.02
2019-03-04T12:14:16.943Z,95180.10
2019-03-04T12:16:47.410Z,95202.69
2019-03-04T12:19:17.865Z,95192.11
2019-03-04T12:21:48.302Z,95181.80
2019-03-04T12:24:18.669Z,95145.66
2019-03-04T12:26:49.137Z,95159.23
2019-03-04T12:29:19.501Z,95163.63
2019-03-04T12:32:07.848Z,95164.46
2019-03-04T12:34:38.226Z,95164.84
2019-03-04T12:37:08.629Z,95183.09
2019-03-04T12:39:39.059Z,95184.44
2019-03-04T12:42:09.520Z,95193.48
2019-03-04T12:44:39.966Z,95184.49
2019-03-04T12:47:10.407Z,95206.08
2019-03-04T12:49:40.777Z,95212.86
2019-03-04T12:52:11.103Z,95230.42
2019-03-04T12:54:41.588Z,95243.99
2019-03-04T12:57:12.074Z,95225.72
2019-03-04T12:59:42.585Z,95236.38
2019-03-04T13:02:12.960Z,95243.45
2019-03-04T13:04:43.423Z,95251.75
2019-03-04T13:07:13.886Z,95243.37
2019-03-04T13:09:44.309Z,95247.64
2019-03-04T13:12:14.803Z,95239.03
2019-03-04T13:14:45.263Z,95233.34
2019-03-04T13:17:15.706Z,95251.92
2019-03-04T13:19:46.124Z,95242.96
2019-03-04T13:22:16.430Z,95253.70
2019-03-04T13:24:46.841Z,95268.12
2019-03-04T13:27:23.825Z,95264.41
2019-03-04T13:29:49.331Z,95251.08
2019-03-04T13:32:19.782Z,95254.26
2019-03-04T13:34:50.217Z,95237.73
2019-03-04T13:37:20.741Z,95244.38
2019-03-04T13:39:51.097Z,95239.44
2019-03-04T13:42:21.531Z,95229.67
2019-03-04T13:44:51.973Z,95226.84
2019-03-04T13:47:22.436Z,95212.63
2019-03-04T13:49:52.747Z,95191.75
2019-03-04T13:52:23.173Z,95189.94
2019-03-04T13:54:53.496Z,95167.92
2019-03-04T13:57:23.830Z,95171.47
2019-03-04T13:59:54.291Z,95174.59
2019-03-04T14:02:24.706Z,95170.60
2019-03-04T14:04:55.086Z,95162.80
2019-03-04T14:07:25.473Z,95171.80
2019-03-04T14:09:55.921Z,95158.81
2019-03-04T14:12:26.385Z,95171.41
2019-03-04T14:14:56.808Z,95166.97
2019-03-04T14:17:27.268Z,95160.41
2019-03-04T14:19:57.627Z,95170.95
2019-03-04T14:22:28.019Z,95165.35
2019-03-04T14:24:58.459Z,95164.75
2019-03-04T14:27:28.877Z,95165.47
2019-03-04T14:29:59.354Z,95166.91
2019-03-04T14:32:29.687Z,95187.83
2019-03-04T14:35:00.007Z,95180.73
2019-03-04T14:37:30.460Z,95178.50
2019-03-04T14:40:00.915Z,95186.95
2019-03-04T14:42:31.304Z,95176.33
2019-03-04T14:45:01.761Z,95181.67
2019-03-04T14:47:32.163Z,95190.66
2019-03-04T14:50:09.459Z,95185.59
2019-03-04T14:52:34.790Z,95173.11
2019-03-04T14:55:07.052Z,95175.56
2019-03-04T14:57:37.362Z,95184.18
2019-03-04T15:00:13.892Z,95180.75
2019-03-04T15:02:44.368Z,95169.11
2019-03-04T15:05:14.624Z,95164.47
2019-03-04T15:07:45.035Z,95156.41
2019-03-04T15:10:15.441Z,95143.39
2019-03-04T15:12:45.760Z,95144.10
2019-03-04T15:15:18.365Z,95140.91
2019-03-04T15:17:48.831Z,95139.63
2019-03-04T15:20:21.482Z,95141.08
2019-03-04T15:22:51.916Z,95135.11
2019-03-04T15:25:30.740Z,95105.92
2019-03-04T15:28:16.185Z,95120.27
2019-03-04T15:30:48.630Z,95106.17
2019-03-04T15:33:19.282Z,95112.59
2019-03-04T15:35:49.767Z,95114.66
2019-03-04T15:38:20.372Z,95112.08
2019-03-04T15:40:50.873Z,95116.67
2019-03-04T15:43:21.699Z,95108.45
2019-03-04T15:45:53.060Z,95101.11
2019-03-04T15:48:25.744Z,95091.95
2019-03-04T15:50:56.092Z,95106.62
2019-03-04T15:53:26.647Z,95091.70
2019-03-04T15:55:57.023Z,95085.08
2019-03-04T15:58:27.396Z,95069.08
2019-03-04T16:00:57.803Z,95065.59
2019-03-04T16:03:28.278Z,95062.63
2019-03-04T16:05:58.721Z,95067.77
2019-03-04T16:08:29.158Z,95060.08
2019-03-04T16:10:59.814Z,95046.39
2019-03-04T16:13:30.152Z,95055.45
2019-03-04T16:16:00.576Z,95045.78
2019-03-04T16:18:31.006Z,95037.04
2019-03-04T16:21:01.431Z,95038.69
2019-03-04T16:23:31.872Z,95044.38
2019-03-04T16:26:09.935Z,95041.86
2019-03-04T16:28:40.611Z,95024.41
2019-03-04T16:31:10.987Z,95015.54
2019-03-04T16:33:41.380Z,95012.23
2019-03-04T16:36:11.634Z,94989.19
2019-03-04T16:38:42.043Z,94979.36
2019-03-04T16:41:12.557Z,94976.45
2019-03-04T16:43:43.024Z,94997.27
2019-03-04T16:46:13.632Z,94991.02
2019-03-04T16:48:44.060Z,94987.29
2019-03-04T16:51:14.507Z,95003.00
2019-03-04T16:53:45.002Z,94988.69
2019-03-04T16:56:15.439Z,94976.75
2019-03-04T16:58:45.936Z,94977.92
2019-03-04T17:01:16.433Z,94964.41
2019-03-04T17:03:46.838Z,94980.67
2019-03-04T17:06:17.453Z,95000.17
2019-03-04T17:08:47.944Z,95003.09
2019-03-04T17:11:18.368Z,94998.71
2019-03-04T17:13:48.719Z,95009.05
2019-03-04T17:16:19.195Z,95003.52
2019-03-04T17:18:49.531Z,95021.55
2019-03-04T17:21:20.008Z,95025.33
2019-03-04T17:23:50.388Z,95021.11
2019-03-04T17:26:20.931Z,95030.83
2019-03-04T17:28:51.431Z,95041.15
2019-03-04T17:31:21.886Z,95055.09
2019-03-04T17:33:52.325Z,95059.02
2019-03-04T17:36:22.759Z,95069.84
2019-03-04T17:38:53.091Z,95062.19
2019-03-04T17:41:23.542Z,95072.16
2019-03-04T17:43:53.996Z,95069.89
2019-03-04T17:46:24.419Z,95067.38
2019-03-04T17:48:55.088Z,95072.11
2019-03-04T17:51:25.561Z,95074.52
2019-03-04T17:53:55.948Z,95066.67
2019-03-04T17:56:26.396Z,95071.91
2019-03-04T17:58:56.729Z,95063.05
2019-03-04T18:01:27.185Z,95082.12
2019-03-04T18:03:57.991Z,95039.23
2019-03-04T18:06:28.408Z,95087.35
2019-03-04T18:08:58.701Z,95075.28
2019-03-04T18:11:29.168Z,95086.45
2019-03-04T18:13:59.486Z,95104.66
2019-03-04T18:16:29.946Z,95081.67
2019-03-04T18:19:00.404Z,95111.66
2019-03-04T18:21:30.753Z,95115.05
2019-03-04T18:24:01.281Z,95118.02
2019-03-04T18:26:54.288Z,95124.09
2019-03-04T18:30:00.874Z,95149.70
2019-03-04T18:33:23.078Z,95161.47
2019-03-04T18:36:42.873Z,95138.93
2019-03-04T18:40:16.119Z,95160.03
2019-03-04T18:43:12.868Z,95163.65
2019-03-04T18:47:01.673Z,95161.03
2019-03-04T18:49:32.123Z,95184.59
2019-03-04T18:52:02.606Z,95244.55
2019-03-04T18:54:33.051Z,95247.02
2019-03-04T18:57:03.452Z,95271.23
2019-03-04T18:59:33.932Z,95268.45
2019-03-04T19:02:04.349Z,95278.30
2019-03-04T19:04:34.752Z,95275.97
2019-03-04T19:07:05.168Z,95289.42
2019-03-04T19:09:35.616Z,95301.53
2019-03-04T19:12:06.000Z,95303.94
2019-03-04T19:14:36.428Z,95307.52
2019-03-04T19:17:07.926Z,95325.41
2019-03-04T19:19:38.344Z,95320.47
2019-03-04T19:22:08.759Z,95341.06
2019-03-04T19:24:39.152Z,95348.82
2019-03-04T19:27:09.604Z,95358.17
2019-03-04T19:29:39.992Z,95350.06
2019-03-04T19:32:10.270Z,95364.35
2019-03-04T19:34:40.749Z,95372.73
2019-03-04T19:37:12.450Z,95393.79
2019-03-04T19:39:42.874Z,95400.50
2019-03-04T19:42:13.449Z,95398.36
2019-03-04T19:44:44.392Z,95391.91
2019-03-04T19:47:14.759Z,95409.73
2019-03-04T19:49:45.383Z,95420.23
2019-03-04T19:52:15.895Z,95424.06
2019-03-04T19:54:46.468Z,95432.88
2019-03-04T19:57:16.866Z,95426.45
2019-03-04T19:59:47.219Z,95421.99
2019-03-04T20:02:18.751Z,95428.73
2019-03-04T20:04:49.450Z,95433.19
2019-03-04T20:07:19.930Z,95449.95
2019-03-04T20:09:50.564Z,95460.93
2019-03-04T20:12:21.068Z,95460.62
2019-03-04T20:14:51.559Z,95472.89
2019-03-04T20:17:22.119Z,95483.38
2019-03-04T20:19:52.676Z,95484.14
2019-03-04T20:22:23.201Z,95491.65
2019-03-04T20:24:53.520Z,95495.33
2019-03-04T20:27:25.601Z,95502.97
2019-03-04T20:29:56.103Z,95503.92
2019-03-04T20:32:26.718Z,95522.48
2019-03-04T20:34:57.122Z,95527.56
2019-03-04T20:37:28.857Z,95538.48
2019-03-04T20:39:59.359Z,95533.15
2019-03-04T20:42:29.956Z,95538.05
2019-03-04T20:45:00.420Z,95546.55
2019-03-04T20:47:30.779Z,95543.58
2019-03-04T20:50:01.150Z,95553.26
2019-03-04T20:52:31.717Z,95559.34
2019-03-04T20:55:03.158Z,95569.69
2019-03-04T20:57:33.532Z,95576.28
2019-03-04T21:00:04.311Z,95573.63
2019-03-04T21:02:34.720Z,95580.25
2019-03-04T21:05:05.952Z,95579.09
2019-03-04T21:07:36.403Z,95581.20
2019-03-04T21:10:08.191Z,95586.16
2019-03-04T21:12:38.596Z,95590.56
2019-03-04T21:15:10.017Z,95602.05
2019-03-04T21:17:40.427Z,95608.14
2019-03-04T21:20:11.523Z,95618.64
2019-03-04T21:22:41.871Z,95615.84
2019-03-04T21:25:39.840Z,95618.63
2019-03-04T21:28:16.712Z,95623.52
2019-03-04T21:31:44.635Z,95620.66
2019-03-04T21:35:06.646Z,95622.73
2019-03-04T21:37:41.879Z,95630.60
2019-03-04T21:40:41.596Z,95625.56
2019-03-04T21:43:41.224Z,95632.43
2019-03-04T21:47:01.442Z,95640.84
2019-03-04T21:49:36.610Z,95628.56
2019-03-04T21:53:06.037Z,95635.22
2019-03-04T21:56:10.786Z,95638.54
2019-03-04T21:58:41.228Z,95643.34
2019-03-04T22:01:21.779Z,95641.70
2019-03-04T22:03:52.497Z,95644.47
2019-03-04T22:06:22.979Z,95655.84
2019-03-04T22:08:53.519Z,95660.75
2019-03-04T22:11:23.944Z,95658.03
2019-03-04T22:13:54.396Z,95668.08
2019-03-04T22:16:24.890Z,95667.59
2019-03-04T22:18:55.335Z,95670.23
2019-03-04T22:21:25.746Z,95662.88
2019-03-04T22:23:56.130Z,95676.00
2019-03-04T22:26:26.618Z,95672.83
2019-03-04T22:28:57.040Z,95674.98
2019-03-04T22:31:27.394Z,95674.34
2019-03-04T22:33:57.933Z,95683.07
2019-03-04T22:36:28.232Z,95688.55
2019-03-04T22:38:58.731Z,95692.58
2019-03-04T22:41:29.188Z,95700.28
2019-03-04T22:43:59.514Z,95686.89
2019-03-04T22:46:29.975Z,95680.39
2019-03-04T22:49:00.313Z,95685.71
2019-03-04T22:51:30.838Z,95676.25
2019-03-04T22:54:01.207Z,95676.36
2019-03-04T22:56:31.656Z,95668.72
2019-03-04T22:59:02.177Z,95671.56
2019-03-04T23:01:47.258Z,95675.83
2019-03-04T23:04:51.338Z,95681.02
2019-03-04T23:07:42.371Z,95679.36
2019-03-04T23:10:48.110Z,95683.72
2019-03-04T23:14:04.973Z,95688.44
2019-03-04T23:16:36.254Z,95681.61
2019-03-04T23:19:06.808Z,95680.35
2019-03-04T23:21:37.315Z,95689.62
2019-03-04T23:24:07.993Z,95695.83
2019-03-04T23:26:38.520Z,95699.16
2019-03-04T23:29:08.943Z,95702.76
2019-03-04T23:31:39.367Z,95700.52
2019-03-04T23:34:09.796Z,95709.97
2019-03-04T23:36:40.211Z,95704.77
2019-03-04T23:39:10.750Z,95711.97
2019-03-04T23:41:41.158Z,95712.63
2019-03-04T23:44:11.689Z,95710.67
2019-03-04T23:46:42.168Z,95715.22
2019-03-04T23:49:12.602Z,95710.67
2019-03-04T23:51:43.095Z,95711.13
2019-03-04T23:54:13.451Z,95720.61
2019-03-04T23:56:43.883Z,95720.25
2019-03-04T23:59:14.290Z,95731.41
